Franklin, Maine
Current Conditions -  °F | °C
As of 8:15 PM on Monday 26 Jan 2015 (Local Time) from KBHB Reporting Station
Broken Clouds Broken Clouds  
Wind Chill: -3°   Ceiling: 12000
Heat Index: 12°   Visibility: 10mi
Dew Point:   Wind: 14mph
Humidity: 67%   Direction: 20°NNE
Pressure: 30.23"   Gusts: NA
Location:  44.59°N, 68.23°W
Report Text: KBHB 270115Z 02012KT 10SM BKN120 M11/M16 A3023 RMK AO1
Loading
Personal Weather Stations






























Interactive Weather Map New forecast layout! Learn more

10-Day Weather Forecast

Advertisements
Track Severe Weather on mobile